createdAt,value
2022-10-28T00:01:15.510Z,10.77
2022-10-28T00:03:45.693Z,12.25
2022-10-28T00:06:23.112Z,13.55
2022-10-28T00:08:50.507Z,13.07
2022-10-28T00:11:27.451Z,16.10
2022-10-28T00:13:57.001Z,22.00
2022-10-28T00:16:27.761Z,14.15
2022-10-28T00:18:56.380Z,17.90
2022-10-28T00:21:30.947Z,19.33
2022-10-28T00:23:58.238Z,20.10
2022-10-28T00:26:31.150Z,14.38
2022-10-28T00:29:04.287Z,11.10
2022-10-28T00:31:33.265Z,14.27
2022-10-28T00:34:02.731Z,11.35
2022-10-28T00:36:34.330Z,16.05
2022-10-28T00:39:04.255Z,14.88
2022-10-28T00:41:37.606Z,9.63
2022-10-28T00:45:03.961Z,11.18
2022-10-28T00:47:52.614Z,10.73
2022-10-28T00:50:41.118Z,11.80
2022-10-28T00:53:31.459Z,9.15
2022-10-28T00:56:03.037Z,14.63
2022-10-28T00:58:30.661Z,10.30
2022-10-28T01:00:57.698Z,12.35
2022-10-28T01:03:25.176Z,11.02
2022-10-28T01:05:53.271Z,14.48
2022-10-28T01:08:20.685Z,14.98
2022-10-28T01:11:43.676Z,14.05
2022-10-28T01:14:23.393Z,10.80
2022-10-28T01:17:18.015Z,13.98
2022-10-28T01:20:29.654Z,11.38
2022-10-28T01:23:22.919Z,9.00
2022-10-28T01:26:35.242Z,10.23
2022-10-28T01:29:29.854Z,7.70
2022-10-28T01:32:09.502Z,12.98
2022-10-28T01:34:53.006Z,12.30
2022-10-28T01:38:05.706Z,10.23
2022-10-28T01:40:51.616Z,10.15
2022-10-28T01:44:14.547Z,12.68
2022-10-28T01:47:25.873Z,10.20
2022-10-28T01:50:10.380Z,9.27
2022-10-28T01:52:40.519Z,16.00
2022-10-28T01:55:16.920Z,16.05
2022-10-28T01:57:45.431Z,10.02
2022-10-28T02:00:13.021Z,13.02
2022-10-28T02:02:42.656Z,13.65
2022-10-28T02:05:49.116Z,11.68
2022-10-28T02:08:22.421Z,15.23
2022-10-28T02:11:13.610Z,7.13
2022-10-28T02:14:15.312Z,15.40
2022-10-28T02:17:37.494Z,9.88
2022-10-28T02:20:16.955Z,10.70
2022-10-28T02:23:20.437Z,10.98
2022-10-28T02:25:54.949Z,9.20
2022-10-28T02:28:55.204Z,17.20
2022-10-28T02:31:36.966Z,12.55
2022-10-28T02:34:21.375Z,12.38
2022-10-28T02:36:55.396Z,9.85
2022-10-28T02:39:37.994Z,11.05
2022-10-28T02:42:14.609Z,6.88
2022-10-28T02:44:49.379Z,13.57
2022-10-28T02:47:22.519Z,8.13
2022-10-28T02:49:57.296Z,9.88
2022-10-28T02:52:29.554Z,11.48
2022-10-28T02:55:00.293Z,12.20
2022-10-28T02:57:37.390Z,10.15
2022-10-28T03:00:19.815Z,10.70
2022-10-28T03:02:47.012Z,10.52
2022-10-28T03:05:14.424Z,9.63
2022-10-28T03:07:41.458Z,11.98
2022-10-28T03:10:09.798Z,12.02
2022-10-28T03:12:36.677Z,12.13
2022-10-28T03:15:04.471Z,7.65
2022-10-28T03:17:31.316Z,13.10
2022-10-28T03:19:58.190Z,13.57
2022-10-28T03:22:24.991Z,9.75
2022-10-28T03:24:51.830Z,16.52
2022-10-28T03:27:18.575Z,15.95
2022-10-28T03:29:46.124Z,10.88
2022-10-28T03:32:13.495Z,9.95
2022-10-28T03:34:40.429Z,7.68
2022-10-28T03:37:07.328Z,10.30
2022-10-28T03:39:34.107Z,15.43
2022-10-28T03:42:00.978Z,9.93
2022-10-28T03:44:27.877Z,8.93
2022-10-28T03:46:54.636Z,12.25
2022-10-28T03:49:21.389Z,14.38
2022-10-28T03:51:48.127Z,12.52
2022-10-28T03:54:14.933Z,9.65
2022-10-28T03:56:41.717Z,9.32
2022-10-28T03:59:13.186Z,14.25
2022-10-28T04:01:41.977Z,12.50
2022-10-28T04:04:08.853Z,11.30
2022-10-28T04:06:35.590Z,10.13
2022-10-28T04:09:02.354Z,20.65
2022-10-28T04:11:29.177Z,16.98
2022-10-28T04:13:55.960Z,13.43
2022-10-28T04:16:22.774Z,15.43
2022-10-28T04:18:49.539Z,15.43
2022-10-28T04:21:17.222Z,15.30
2022-10-28T04:23:44.019Z,11.15
2022-10-28T04:26:10.814Z,11.80
2022-10-28T04:28:37.599Z,10.07
2022-10-28T04:31:04.564Z,9.75
2022-10-28T04:33:31.485Z,9.93
2022-10-28T04:35:58.393Z,13.60
2022-10-28T04:40:51.897Z,15.30
2022-10-28T04:43:18.667Z,10.57
2022-10-28T04:45:47.312Z,11.20
2022-10-28T04:48:14.265Z,18.10
2022-10-28T04:50:41.327Z,13.18
2022-10-28T04:53:08.092Z,16.25
2022-10-28T04:55:34.793Z,16.83
2022-10-28T04:58:02.026Z,8.88
2022-10-28T05:00:30.123Z,9.70
2022-10-28T05:02:57.886Z,12.75
2022-10-28T05:05:25.769Z,14.40
2022-10-28T05:07:52.930Z,13.50
2022-10-28T05:10:19.951Z,10.30
2022-10-28T05:12:46.913Z,12.32
2022-10-28T05:15:15.359Z,11.65
2022-10-28T05:17:47.353Z,9.40
2022-10-28T05:20:17.600Z,14.38
2022-10-28T05:22:53.911Z,11.77
2022-10-28T05:25:22.352Z,14.38
2022-10-28T05:27:49.521Z,12.20
2022-10-28T05:30:16.515Z,11.82
2022-10-28T05:32:43.902Z,10.93
2022-10-28T05:35:10.951Z,12.13
2022-10-28T05:37:38.071Z,14.77
2022-10-28T05:40:05.459Z,11.60
2022-10-28T05:42:32.200Z,10.52
2022-10-28T05:44:58.987Z,12.40
2022-10-28T05:47:25.791Z,11.55
2022-10-28T05:49:52.596Z,13.45
2022-10-28T05:52:19.800Z,11.23
2022-10-28T05:54:46.548Z,16.23
2022-10-28T05:57:13.314Z,10.57
2022-10-28T05:59:40.181Z,19.17
2022-10-28T06:02:13.658Z,20.25
2022-10-28T06:04:41.610Z,18.25
2022-10-28T06:07:08.950Z,15.90
2022-10-28T06:09:35.880Z,16.38
2022-10-28T06:12:01.257Z,9.80
2022-10-28T06:14:28.132Z,25.40
2022-10-28T06:16:54.917Z,13.13
2022-10-28T06:19:21.809Z,15.27
2022-10-28T06:21:48.581Z,13.23
2022-10-28T06:24:15.374Z,15.43
2022-10-28T06:26:42.417Z,16.67
2022-10-28T06:29:10.279Z,26.45
2022-10-28T06:31:41.425Z,20.20
2022-10-28T06:34:09.487Z,15.20
2022-10-28T06:36:37.164Z,23.92
2022-10-28T06:39:04.768Z,20.42
2022-10-28T06:41:31.941Z,20.08
2022-10-28T06:43:58.771Z,13.55
2022-10-28T06:46:26.153Z,11.98
2022-10-28T06:48:57.489Z,15.50
2022-10-28T06:51:25.495Z,11.18
2022-10-28T06:53:52.905Z,12.43
2022-10-28T06:56:19.810Z,14.50
2022-10-28T06:58:54.667Z,11.45
2022-10-28T07:01:22.594Z,13.40
2022-10-28T07:03:49.868Z,11.70
2022-10-28T07:06:17.861Z,12.45
2022-10-28T07:08:44.747Z,10.48
2022-10-28T07:11:11.497Z,10.68
2022-10-28T07:13:38.344Z,14.65
2022-10-28T07:16:05.581Z,13.02
2022-10-28T07:18:32.458Z,12.82
2022-10-28T07:21:01.348Z,9.43
2022-10-28T07:23:29.052Z,14.13
2022-10-28T07:25:56.892Z,16.02
2022-10-28T07:28:25.914Z,18.75
2022-10-28T07:30:52.832Z,15.30
2022-10-28T07:33:20.084Z,14.88
2022-10-28T07:35:47.186Z,11.50
2022-10-28T07:38:13.963Z,9.38
2022-10-28T07:40:40.765Z,14.48
2022-10-28T07:43:07.531Z,10.07
2022-10-28T07:45:35.701Z,13.85
2022-10-28T07:48:04.065Z,10.38
2022-10-28T07:50:30.966Z,11.68
2022-10-28T07:52:57.831Z,10.05
2022-10-28T07:55:26.131Z,15.68
2022-10-28T07:57:53.255Z,11.80
2022-10-28T08:00:20.374Z,14.77
2022-10-28T08:02:47.241Z,19.63
2022-10-28T08:05:14.086Z,15.90
2022-10-28T08:07:40.952Z,12.88
2022-10-28T08:10:08.253Z,10.40
2022-10-28T08:12:35.013Z,13.13
2022-10-28T08:15:02.714Z,16.58
2022-10-28T08:17:30.005Z,9.35
2022-10-28T08:19:56.858Z,11.25
2022-10-28T08:22:23.839Z,10.57
2022-10-28T08:24:50.590Z,15.38
2022-10-28T08:27:17.375Z,21.17
2022-10-28T08:29:44.178Z,27.95
2022-10-28T08:32:11.188Z,14.93
2022-10-28T08:34:40.903Z,19.02
2022-10-28T08:37:10.557Z,12.65
2022-10-28T08:39:37.414Z,9.98
2022-10-28T08:42:32.982Z,10.50
2022-10-28T08:45:38.758Z,12.48
2022-10-28T08:48:27.905Z,10.52
2022-10-28T08:51:09.442Z,12.27
2022-10-28T08:53:53.508Z,13.25
2022-10-28T08:56:31.609Z,11.30
2022-10-28T08:59:04.819Z,11.98
2022-10-28T09:01:48.376Z,11.57
2022-10-28T09:04:43.396Z,10.13
2022-10-28T09:07:18.588Z,7.65
2022-10-28T09:09:47.097Z,11.88
2022-10-28T09:12:31.889Z,11.02
2022-10-28T09:15:18.002Z,10.45
2022-10-28T09:18:11.798Z,13.75
2022-10-28T09:21:04.811Z,8.30
2022-10-28T09:23:37.132Z,8.93
2022-10-28T09:27:03.285Z,9.77
2022-10-28T09:30:28.226Z,13.75
2022-10-28T09:33:28.208Z,12.45
2022-10-28T09:35:56.900Z,8.60
2022-10-28T09:38:35.562Z,12.48
2022-10-28T09:41:34.110Z,11.63
2022-10-28T09:44:23.944Z,10.10
2022-10-28T09:46:58.739Z,13.32
2022-10-28T09:49:34.463Z,10.40
2022-10-28T09:52:19.958Z,7.47
2022-10-28T09:54:52.615Z,15.30
2022-10-28T09:57:22.123Z,15.07
2022-10-28T09:59:49.152Z,12.52
2022-10-28T10:02:30.359Z,8.32
2022-10-28T10:04:59.475Z,9.48
2022-10-28T10:08:00.282Z,16.35
2022-10-28T10:10:36.034Z,17.00
2022-10-28T10:13:06.891Z,9.90
2022-10-28T10:15:54.146Z,15.20
2022-10-28T10:18:30.002Z,10.25
2022-10-28T10:20:58.779Z,15.00
2022-10-28T10:23:32.566Z,7.72
2022-10-28T10:26:11.110Z,15.45
2022-10-28T10:28:49.356Z,14.05
2022-10-28T10:31:27.312Z,10.30
2022-10-28T10:33:57.609Z,10.63
2022-10-28T10:36:31.385Z,14.07
2022-10-28T10:39:01.918Z,9.82
2022-10-28T10:41:44.680Z,13.82
2022-10-28T10:44:30.545Z,8.52
2022-10-28T10:47:05.051Z,10.63
2022-10-28T10:49:36.941Z,9.98
2022-10-28T10:52:15.566Z,14.38
2022-10-28T10:54:59.683Z,15.50
2022-10-28T10:57:27.494Z,10.88
2022-10-28T10:59:56.985Z,14.32
2022-10-28T11:02:36.972Z,13.50
2022-10-28T11:05:10.054Z,16.83
2022-10-28T11:07:44.985Z,10.27
2022-10-28T11:10:25.388Z,11.50
2022-10-28T11:13:23.301Z,10.13
2022-10-28T11:16:06.545Z,6.93
2022-10-28T11:18:43.813Z,9.05
2022-10-28T11:21:49.129Z,12.45
2022-10-28T11:24:40.105Z,12.13
2022-10-28T11:27:51.732Z,15.57
2022-10-28T11:30:47.629Z,10.98
2022-10-28T11:33:35.030Z,9.30
2022-10-28T11:36:36.610Z,8.70
2022-10-28T11:39:19.813Z,13.88
2022-10-28T11:42:04.290Z,9.32
2022-10-28T11:45:13.542Z,13.52
2022-10-28T11:48:08.340Z,11.00
2022-10-28T11:50:54.923Z,12.52
2022-10-28T11:53:54.450Z,9.00
2022-10-28T11:56:47.120Z,9.90
2022-10-28T11:59:26.728Z,11.25
2022-10-28T12:02:54.973Z,11.65
2022-10-28T12:05:39.030Z,13.90
2022-10-28T12:08:20.617Z,10.00
2022-10-28T12:11:21.824Z,8.38
2022-10-28T12:13:58.436Z,10.45
2022-10-28T12:16:55.977Z,11.95
2022-10-28T12:19:32.599Z,12.38
2022-10-28T12:22:10.463Z,9.82
2022-10-28T12:24:41.066Z,12.00
2022-10-28T12:27:31.278Z,10.18
2022-10-28T12:30:14.104Z,11.30
2022-10-28T12:32:44.354Z,8.90
2022-10-28T12:35:29.716Z,11.60
2022-10-28T12:38:06.758Z,12.98
2022-10-28T12:40:49.564Z,14.93
2022-10-28T12:43:57.208Z,12.88
2022-10-28T12:46:38.748Z,13.77
2022-10-28T12:49:34.949Z,9.68
2022-10-28T12:52:22.106Z,14.90
2022-10-28T12:55:24.438Z,14.77
2022-10-28T12:58:01.293Z,12.20
2022-10-28T13:00:37.804Z,11.95
2022-10-28T13:03:13.498Z,11.02
2022-10-28T13:05:45.770Z,14.32
2022-10-28T13:08:46.571Z,11.43
2022-10-28T13:11:19.407Z,14.07
2022-10-28T13:14:48.746Z,11.93
2022-10-28T13:17:41.478Z,14.95
2022-10-28T13:20:42.733Z,15.60
2022-10-28T13:23:28.799Z,13.63
2022-10-28T13:26:01.152Z,13.35
2022-10-28T13:28:35.319Z,18.70
2022-10-28T13:31:08.086Z,16.80
2022-10-28T13:33:38.454Z,14.10
2022-10-28T13:36:35.353Z,17.00
2022-10-28T13:39:06.913Z,9.90
2022-10-28T13:41:43.387Z,17.85
2022-10-28T13:44:25.846Z,13.85
2022-10-28T13:47:04.247Z,10.25
2022-10-28T13:49:35.902Z,11.55
2022-10-28T13:52:23.018Z,12.75
2022-10-28T13:54:54.425Z,14.95
2022-10-28T13:57:37.778Z,16.33
2022-10-28T14:00:06.468Z,9.85
2022-10-28T14:02:46.319Z,11.20
2022-10-28T14:05:17.985Z,16.90
2022-10-28T14:07:56.666Z,15.50
2022-10-28T14:10:28.871Z,9.82
2022-10-28T14:13:00.761Z,10.43
2022-10-28T14:15:38.191Z,11.35
2022-10-28T14:21:05.716Z,11.07
2022-10-28T14:23:32.459Z,12.18
2022-10-28T14:26:04.604Z,12.43
2022-10-28T14:28:31.493Z,9.55
2022-10-28T14:31:12.991Z,11.02
2022-10-28T14:33:53.833Z,10.40
2022-10-28T14:36:20.493Z,13.63
2022-10-28T14:39:04.340Z,13.40
2022-10-28T14:41:57.016Z,15.38
2022-10-28T14:44:49.565Z,13.82
2022-10-28T14:47:43.638Z,11.07
2022-10-28T14:50:38.924Z,13.60
2022-10-28T14:53:28.989Z,16.90
2022-10-28T14:56:28.205Z,18.00
2022-10-28T14:59:03.302Z,10.70
2022-10-28T15:01:55.770Z,12.23
2022-10-28T15:04:23.301Z,11.73
2022-10-28T15:06:52.168Z,14.70
2022-10-28T15:09:33.072Z,12.52
2022-10-28T15:12:09.841Z,17.73
2022-10-28T15:14:45.985Z,9.80
2022-10-28T15:17:23.429Z,11.23
2022-10-28T15:20:01.155Z,12.15
2022-10-28T15:22:33.193Z,12.68
2022-10-28T15:25:04.472Z,10.93
2022-10-28T15:27:35.184Z,9.50
2022-10-28T15:30:04.082Z,11.48
2022-10-28T15:32:35.715Z,15.45
2022-10-28T15:35:30.632Z,17.17
2022-10-28T15:38:01.863Z,15.25
2022-10-28T15:40:32.670Z,10.10
2022-10-28T15:43:16.817Z,12.65
2022-10-28T15:45:44.830Z,8.43
2022-10-28T15:48:18.802Z,13.65
2022-10-28T15:50:45.741Z,11.13
2022-10-28T15:53:35.422Z,10.80
2022-10-28T15:56:14.043Z,13.27
2022-10-28T15:58:46.784Z,9.00
2022-10-28T16:01:35.732Z,7.20
2022-10-28T16:04:02.598Z,10.10
2022-10-28T16:06:33.651Z,9.18
2022-10-28T16:09:09.277Z,12.02
2022-10-28T16:11:42.422Z,11.68
2022-10-28T16:14:31.284Z,10.52
2022-10-28T16:17:36.149Z,9.85
2022-10-28T16:20:20.436Z,9.00
2022-10-28T16:22:48.362Z,11.38
2022-10-28T16:25:20.549Z,8.38
2022-10-28T16:27:49.433Z,8.55
2022-10-28T16:30:16.423Z,12.70
2022-10-28T16:32:49.568Z,14.45
2022-10-28T16:35:22.889Z,14.95
2022-10-28T16:37:54.621Z,12.82
2022-10-28T16:40:49.513Z,12.30
2022-10-28T16:43:16.548Z,13.60
2022-10-28T16:45:43.678Z,18.48
2022-10-28T16:48:16.246Z,12.48
2022-10-28T16:51:00.394Z,16.30
2022-10-28T16:53:27.821Z,14.18
2022-10-28T16:56:00.875Z,18.88
2022-10-28T16:58:33.559Z,17.50
2022-10-28T17:01:00.441Z,11.80
2022-10-28T17:03:27.202Z,13.38
2022-10-28T17:05:54.044Z,15.73
2022-10-28T17:08:42.124Z,13.95
2022-10-28T17:11:13.668Z,17.13
2022-10-28T17:13:40.456Z,23.35
2022-10-28T17:16:07.639Z,16.08
2022-10-28T17:18:34.373Z,15.25
2022-10-28T17:21:02.828Z,13.52
2022-10-28T17:23:30.217Z,17.45
2022-10-28T17:26:02.680Z,15.07
2022-10-28T17:28:30.027Z,13.70
2022-10-28T17:31:06.143Z,17.15
2022-10-28T17:33:33.442Z,16.60
2022-10-28T17:36:07.797Z,16.08
2022-10-28T17:38:34.852Z,18.40
2022-10-28T17:41:01.748Z,20.25
2022-10-28T17:43:28.638Z,15.05
2022-10-28T17:46:06.371Z,16.20
2022-10-28T17:48:34.209Z,15.18
2022-10-28T17:51:01.202Z,16.50
2022-10-28T17:53:28.140Z,23.27
2022-10-28T17:56:04.967Z,19.02
2022-10-28T17:58:33.013Z,14.32
2022-10-28T18:01:06.640Z,16.42
2022-10-28T18:03:38.957Z,17.67
2022-10-28T18:06:11.096Z,11.80
2022-10-28T18:08:41.393Z,16.30
2022-10-28T18:11:12.457Z,19.77
2022-10-28T18:13:44.654Z,23.83
2022-10-28T18:16:21.593Z,18.88
2022-10-28T18:18:48.434Z,33.28
2022-10-28T18:21:15.370Z,22.80
2022-10-28T18:23:42.307Z,25.48
2022-10-28T18:26:17.523Z,18.15
2022-10-28T18:28:45.776Z,21.23
2022-10-28T18:31:16.465Z,19.13
2022-10-28T18:33:44.677Z,24.30
2022-10-28T18:36:15.261Z,21.27
2022-10-28T18:38:42.433Z,26.05
2022-10-28T18:41:11.554Z,22.73
2022-10-28T18:43:39.391Z,40.40
2022-10-28T18:46:06.645Z,40.45
2022-10-28T18:48:33.549Z,46.00
2022-10-28T18:51:06.768Z,34.90
2022-10-28T18:53:43.794Z,25.30
2022-10-28T18:56:15.237Z,22.15
2022-10-28T18:58:43.943Z,22.50
2022-10-28T19:01:17.293Z,20.73
2022-10-28T19:03:44.564Z,22.45
2022-10-28T19:06:16.833Z,28.95
2022-10-28T19:08:44.476Z,23.63
2022-10-28T19:11:13.626Z,28.98
2022-10-28T19:13:42.202Z,21.50
2022-10-28T19:16:09.462Z,26.05
2022-10-28T19:18:38.206Z,27.20
2022-10-28T19:21:14.114Z,24.63
2022-10-28T19:23:42.658Z,24.25
2022-10-28T19:26:12.215Z,28.90
2022-10-28T19:28:44.623Z,28.17
2022-10-28T19:31:18.312Z,25.83
2022-10-28T19:33:45.435Z,24.65
2022-10-28T19:36:20.405Z,22.92
2022-10-28T19:38:49.279Z,20.35
2022-10-28T19:41:25.862Z,27.23
2022-10-28T19:43:58.122Z,30.05
2022-10-28T19:46:28.367Z,28.30
2022-10-28T19:48:58.944Z,20.83
2022-10-28T19:51:40.743Z,30.00
2022-10-28T19:54:12.966Z,32.95
2022-10-28T19:56:40.075Z,18.98
2022-10-28T19:59:07.154Z,19.73
2022-10-28T20:01:37.567Z,18.67
2022-10-28T20:04:05.185Z,23.33
2022-10-28T20:06:35.515Z,21.92
2022-10-28T20:09:03.686Z,23.95
2022-10-28T20:11:33.576Z,21.60
2022-10-28T20:14:12.650Z,23.40
2022-10-28T20:16:46.036Z,24.10
2022-10-28T20:19:12.921Z,32.80
2022-10-28T20:21:40.168Z,21.45
2022-10-28T20:24:08.065Z,29.67
2022-10-28T20:26:38.139Z,19.05
2022-10-28T20:29:09.723Z,26.92
2022-10-28T20:31:38.803Z,22.92
2022-10-28T20:34:08.953Z,26.45
2022-10-28T20:36:46.500Z,22.77
2022-10-28T20:39:20.815Z,25.50
2022-10-28T20:41:48.994Z,25.30
2022-10-28T20:44:16.488Z,25.25
2022-10-28T20:46:47.933Z,20.25
2022-10-28T20:49:15.297Z,16.05
2022-10-28T20:51:42.489Z,23.98
2022-10-28T20:54:09.512Z,22.25
2022-10-28T20:56:38.778Z,24.83
2022-10-28T20:59:06.141Z,23.35
2022-10-28T21:01:37.492Z,28.95
2022-10-28T21:04:08.672Z,24.02
2022-10-28T21:06:38.044Z,25.23
2022-10-28T21:09:05.319Z,19.10
2022-10-28T21:11:32.624Z,19.15
2022-10-28T21:14:01.561Z,26.30
2022-10-28T21:16:30.417Z,24.17
2022-10-28T21:18:59.244Z,22.27
2022-10-28T21:21:27.010Z,22.38
2022-10-28T21:23:54.139Z,23.30
2022-10-28T21:26:21.837Z,19.25
2022-10-28T21:28:53.534Z,18.73
2022-10-28T21:31:21.820Z,28.77
2022-10-28T21:36:22.880Z,20.48
2022-10-28T21:38:54.922Z,24.05
2022-10-28T21:41:23.092Z,26.13
2022-10-28T21:43:52.408Z,19.33
2022-10-28T21:46:21.456Z,27.00
2022-10-28T21:48:49.522Z,25.42
2022-10-28T21:51:17.574Z,23.63
2022-10-28T21:53:45.089Z,33.33
2022-10-28T21:56:19.255Z,27.75
2022-10-28T21:58:49.456Z,21.38
2022-10-28T22:01:23.792Z,23.25
2022-10-28T22:03:53.464Z,28.02
2022-10-28T22:06:20.286Z,28.98
2022-10-28T22:08:47.455Z,27.67
2022-10-28T22:11:18.186Z,18.55
2022-10-28T22:13:45.616Z,19.67
2022-10-28T22:16:15.974Z,24.17
2022-10-28T22:18:44.388Z,22.77
2022-10-28T22:21:17.389Z,23.52
2022-10-28T22:23:44.984Z,18.35
2022-10-28T22:26:21.707Z,24.10
2022-10-28T22:28:49.583Z,19.35
2022-10-28T22:31:20.395Z,28.73
2022-10-28T22:33:48.236Z,18.20
2022-10-28T22:36:22.209Z,19.25
2022-10-28T22:38:49.666Z,25.17
2022-10-28T22:41:26.046Z,18.08
2022-10-28T22:43:58.504Z,24.80
2022-10-28T22:46:29.566Z,23.95
2022-10-28T22:48:57.615Z,24.33
2022-10-28T22:51:24.888Z,21.23
2022-10-28T22:53:51.751Z,19.88
2022-10-28T22:56:24.144Z,24.70
2022-10-28T22:59:01.992Z,18.65
2022-10-28T23:01:29.904Z,25.25
2022-10-28T23:03:57.157Z,22.45
2022-10-28T23:06:26.769Z,20.25
2022-10-28T23:08:54.495Z,29.33
2022-10-28T23:11:22.741Z,26.30
2022-10-28T23:13:54.417Z,26.48
2022-10-28T23:16:23.426Z,20.38
2022-10-28T23:18:52.752Z,16.15
2022-10-28T23:21:23.005Z,18.48
2022-10-28T23:23:55.916Z,22.38
2022-10-28T23:26:23.744Z,20.40
2022-10-28T23:28:53.616Z,19.65
2022-10-28T23:31:21.807Z,27.80
2022-10-28T23:33:49.388Z,24.10
2022-10-28T23:36:17.065Z,24.40
2022-10-28T23:38:44.071Z,17.00
2022-10-28T23:41:15.993Z,22.15
2022-10-28T23:43:42.944Z,20.80
2022-10-28T23:46:10.588Z,22.10
2022-10-28T23:48:37.781Z,18.20
2022-10-28T23:51:05.088Z,18.15
2022-10-28T23:53:31.903Z,20.75
2022-10-28T23:55:58.879Z,26.40
2022-10-28T23:58:26.305Z,20.13
